createdAt,value
2022-12-18T00:00:25.099Z,7.18
2022-12-18T00:03:27.337Z,10.25
2022-12-18T00:06:30.148Z,5.28
2022-12-18T00:09:40.090Z,7.05
2022-12-18T00:12:43.196Z,7.78
2022-12-18T00:15:46.868Z,7.18
2022-12-18T00:18:51.550Z,9.07
2022-12-18T00:21:53.746Z,6.32
2022-12-18T00:24:56.444Z,6.00
2022-12-18T00:27:58.572Z,6.53
2022-12-18T00:31:14.873Z,8.95
2022-12-18T00:34:17.379Z,8.20
2022-12-18T00:37:20.380Z,6.35
2022-12-18T00:40:22.780Z,7.18
2022-12-18T00:43:25.144Z,7.95
2022-12-18T00:46:27.321Z,6.00
2022-12-18T00:49:29.572Z,6.57
2022-12-18T00:52:31.873Z,6.37
2022-12-18T00:55:34.125Z,6.15
2022-12-18T00:58:39.351Z,7.90
2022-12-18T01:01:41.698Z,6.15
2022-12-18T01:04:44.043Z,7.97
2022-12-18T01:07:46.238Z,6.80
2022-12-18T01:10:48.511Z,7.10
2022-12-18T01:13:50.738Z,10.23
2022-12-18T01:16:52.971Z,9.88
2022-12-18T01:19:55.196Z,5.45
2022-12-18T01:22:57.348Z,7.28
2022-12-18T01:25:59.543Z,6.85
2022-12-18T01:29:01.783Z,6.43
2022-12-18T01:32:04.157Z,6.00
2022-12-18T01:35:07.028Z,5.85
2022-12-18T01:38:09.363Z,6.05
2022-12-18T01:41:11.766Z,7.00
2022-12-18T01:44:51.713Z,6.78
2022-12-18T01:47:59.926Z,6.50
2022-12-18T01:51:02.559Z,6.47
2022-12-18T01:54:04.832Z,6.15
2022-12-18T01:57:07.117Z,6.30
2022-12-18T02:00:20.219Z,6.00
2022-12-18T02:03:22.482Z,6.50
2022-12-18T02:06:32.038Z,7.93
2022-12-18T02:09:37.781Z,8.65
2022-12-18T02:13:13.557Z,6.43
2022-12-18T02:16:31.472Z,6.45
2022-12-18T02:19:52.096Z,7.87
2022-12-18T02:23:05.798Z,7.05
2022-12-18T02:26:21.933Z,6.72
2022-12-18T02:29:30.325Z,5.87
2022-12-18T02:32:36.075Z,6.50
2022-12-18T02:35:39.934Z,6.35
2022-12-18T02:38:43.800Z,5.90
2022-12-18T02:41:46.216Z,6.70
2022-12-18T02:44:51.383Z,7.22
2022-12-18T02:47:53.622Z,7.00
2022-12-18T02:51:01.141Z,6.40
2022-12-18T02:54:32.548Z,6.30
2022-12-18T02:57:38.442Z,6.25
2022-12-18T03:00:44.430Z,7.15
2022-12-18T03:03:53.224Z,5.95
2022-12-18T03:06:58.192Z,5.40
2022-12-18T03:10:01.652Z,5.75
2022-12-18T03:13:07.464Z,6.85
2022-12-18T03:16:13.429Z,5.18
2022-12-18T03:19:19.151Z,5.70
2022-12-18T03:22:22.053Z,6.15
2022-12-18T03:25:25.636Z,6.10
2022-12-18T03:28:29.417Z,7.22
2022-12-18T03:31:32.920Z,5.28
2022-12-18T03:34:37.208Z,4.40
2022-12-18T03:37:39.537Z,5.75
2022-12-18T03:40:54.112Z,6.28
2022-12-18T03:44:04.726Z,4.62
2022-12-18T03:47:25.388Z,6.10
2022-12-18T03:51:03.453Z,6.62
2022-12-18T03:54:06.580Z,5.30
2022-12-18T03:57:15.840Z,5.97
2022-12-18T04:00:19.970Z,6.60
2022-12-18T04:03:26.245Z,6.00
2022-12-18T04:06:30.288Z,4.93
2022-12-18T04:09:33.605Z,4.93
2022-12-18T04:12:35.922Z,5.25
2022-12-18T04:15:38.724Z,6.18
2022-12-18T04:18:41.001Z,5.40
2022-12-18T04:21:43.182Z,6.22
2022-12-18T04:24:45.367Z,5.82
2022-12-18T04:27:47.583Z,6.37
2022-12-18T04:30:50.207Z,6.70
2022-12-18T04:33:52.392Z,5.05
2022-12-18T04:36:54.529Z,6.90
2022-12-18T04:39:56.951Z,5.03
2022-12-18T04:42:59.168Z,4.18
2022-12-18T04:46:06.328Z,6.60
2022-12-18T04:49:08.883Z,6.97
2022-12-18T04:52:11.090Z,7.00
2022-12-18T04:55:13.324Z,5.37
2022-12-18T04:58:15.881Z,7.12
2022-12-18T05:01:20.359Z,5.43
2022-12-18T05:04:22.685Z,6.78
2022-12-18T05:07:25.114Z,6.18
2022-12-18T05:10:27.276Z,3.60
2022-12-18T05:13:30.848Z,4.22
2022-12-18T05:16:33.060Z,6.53
2022-12-18T05:19:35.287Z,4.45
2022-12-18T05:22:37.565Z,6.00
2022-12-18T05:25:39.754Z,5.60
2022-12-18T05:28:41.951Z,4.80
2022-12-18T05:31:44.234Z,4.53
2022-12-18T05:34:46.865Z,7.32
2022-12-18T05:37:49.040Z,6.75
2022-12-18T05:40:52.069Z,7.30
2022-12-18T05:43:54.232Z,4.07
2022-12-18T05:46:56.495Z,7.53
2022-12-18T05:49:58.877Z,5.72
2022-12-18T05:53:01.058Z,8.70
2022-12-18T05:56:05.187Z,8.88
2022-12-18T05:59:07.410Z,5.82
2022-12-18T06:02:09.683Z,4.57
2022-12-18T06:05:12.124Z,8.35
2022-12-18T06:08:14.672Z,6.05
2022-12-18T06:11:22.194Z,7.07
2022-12-18T06:14:24.389Z,5.95
2022-12-18T06:17:30.759Z,5.85
2022-12-18T06:20:33.796Z,5.70
2022-12-18T06:23:37.287Z,4.68
2022-12-18T06:26:40.155Z,4.57
2022-12-18T06:29:42.342Z,7.15
2022-12-18T06:32:44.522Z,5.57
2022-12-18T06:35:50.021Z,4.25
2022-12-18T06:38:52.244Z,6.28
2022-12-18T06:41:54.493Z,5.85
2022-12-18T06:44:56.682Z,7.90
2022-12-18T06:47:58.923Z,4.68
2022-12-18T06:51:01.885Z,6.35
2022-12-18T06:54:04.710Z,4.10
2022-12-18T06:57:06.883Z,5.87
2022-12-18T07:00:09.539Z,6.03
2022-12-18T07:03:11.881Z,6.53
2022-12-18T07:06:16.194Z,3.80
2022-12-18T07:09:18.330Z,6.05
2022-12-18T07:12:20.579Z,4.72
2022-12-18T07:15:22.783Z,6.03
2022-12-18T07:18:24.990Z,7.50
2022-12-18T07:21:27.260Z,6.65
2022-12-18T07:24:29.554Z,12.57
2022-12-18T07:27:31.737Z,9.15
2022-12-18T07:30:34.430Z,5.97
2022-12-18T07:33:36.887Z,7.50
2022-12-18T07:36:39.680Z,6.00
2022-12-18T07:39:41.852Z,6.20
2022-12-18T07:42:44.118Z,5.72
2022-12-18T07:45:46.441Z,5.72
2022-12-18T07:48:49.704Z,4.47
2022-12-18T07:51:52.559Z,6.82
2022-12-18T07:54:54.780Z,6.03
2022-12-18T07:58:00.985Z,5.45
2022-12-18T08:01:13.523Z,7.37
2022-12-18T08:04:15.888Z,5.45
2022-12-18T08:07:18.050Z,5.65
2022-12-18T08:10:21.148Z,6.53
2022-12-18T08:13:23.382Z,6.18
2022-12-18T08:16:25.804Z,6.22
2022-12-18T08:19:28.004Z,5.43
2022-12-18T08:22:30.200Z,5.95
2022-12-18T08:25:32.476Z,4.78
2022-12-18T08:28:35.358Z,6.68
2022-12-18T08:31:37.570Z,5.57
2022-12-18T08:34:40.017Z,7.82
2022-12-18T08:37:42.207Z,5.93
2022-12-18T08:40:44.815Z,6.62
2022-12-18T08:44:06.177Z,7.47
2022-12-18T08:47:09.166Z,5.22
2022-12-18T08:50:12.932Z,8.63
2022-12-18T08:53:15.294Z,7.60
2022-12-18T08:56:17.732Z,9.77
2022-12-18T08:59:20.773Z,6.87
2022-12-18T09:02:24.218Z,6.57
2022-12-18T09:05:26.933Z,6.65
2022-12-18T09:08:29.322Z,8.07
2022-12-18T09:11:32.565Z,7.40
2022-12-18T09:14:34.818Z,6.87
2022-12-18T09:17:37.012Z,8.75
2022-12-18T09:20:39.634Z,8.85
2022-12-18T09:23:42.173Z,8.52
2022-12-18T09:26:47.073Z,8.15
2022-12-18T09:29:49.753Z,5.68
2022-12-18T09:32:51.956Z,6.30
2022-12-18T09:35:54.110Z,6.37
2022-12-18T09:38:56.438Z,5.97
2022-12-18T09:41:59.665Z,5.32
2022-12-18T09:45:02.307Z,6.30
2022-12-18T09:48:05.373Z,5.10
2022-12-18T09:51:38.882Z,6.70
2022-12-18T09:54:46.790Z,6.03
2022-12-18T09:57:51.184Z,6.07
2022-12-18T10:00:56.867Z,4.80
2022-12-18T10:03:59.609Z,6.70
2022-12-18T10:07:09.431Z,5.93
2022-12-18T10:10:24.557Z,6.07
2022-12-18T10:13:37.545Z,6.18
2022-12-18T10:16:57.527Z,4.82
2022-12-18T10:20:02.313Z,5.55
2022-12-18T10:23:22.471Z,6.82
2022-12-18T10:26:29.262Z,7.80
2022-12-18T10:29:31.544Z,6.93
2022-12-18T10:32:33.704Z,5.93
2022-12-18T10:35:36.709Z,6.53
2022-12-18T10:38:39.441Z,6.15
2022-12-18T10:41:42.004Z,5.82
2022-12-18T10:44:44.285Z,6.15
2022-12-18T10:47:49.808Z,5.72
2022-12-18T10:51:12.644Z,7.18
2022-12-18T10:54:18.432Z,6.18
2022-12-18T10:57:39.688Z,6.87
2022-12-18T11:00:42.366Z,6.32
2022-12-18T11:03:45.943Z,6.87
2022-12-18T11:07:08.472Z,5.05
2022-12-18T11:10:17.720Z,6.22
2022-12-18T11:13:22.860Z,10.90
2022-12-18T11:16:25.244Z,8.07
2022-12-18T11:19:36.366Z,5.97
2022-12-18T11:22:39.348Z,7.37
2022-12-18T11:25:53.114Z,3.87
2022-12-18T11:29:10.148Z,6.32
2022-12-18T11:32:35.328Z,5.80
2022-12-18T11:35:53.572Z,5.93
2022-12-18T11:38:56.620Z,5.72
2022-12-18T11:42:28.761Z,7.45
2022-12-18T11:45:37.473Z,4.70
2022-12-18T11:49:12.494Z,8.32
2022-12-18T11:52:17.739Z,5.93
2022-12-18T11:55:34.889Z,6.65
2022-12-18T11:58:55.989Z,9.32
2022-12-18T12:02:28.451Z,6.93
2022-12-18T12:05:55.411Z,8.20
2022-12-18T12:09:12.006Z,6.00
2022-12-18T12:12:48.565Z,7.87
2022-12-18T12:16:22.721Z,6.20
2022-12-18T12:19:36.831Z,6.18
2022-12-18T12:22:51.257Z,7.25
2022-12-18T12:26:02.623Z,6.65
2022-12-18T12:29:21.277Z,8.57
2022-12-18T12:32:46.861Z,8.07
2022-12-18T12:36:37.815Z,7.68
2022-12-18T12:39:42.835Z,8.18
2022-12-18T12:43:08.606Z,7.10
2022-12-18T12:46:15.356Z,11.88
2022-12-18T12:49:19.976Z,7.40
2022-12-18T12:52:30.446Z,6.25
2022-12-18T12:55:33.239Z,10.00
2022-12-18T12:59:14.143Z,7.80
2022-12-18T13:02:36.999Z,6.65
2022-12-18T13:05:52.264Z,8.45
2022-12-18T13:09:00.006Z,7.78
2022-12-18T13:12:29.434Z,6.57
2022-12-18T13:15:36.791Z,8.23
2022-12-18T13:18:50.182Z,7.78
2022-12-18T13:21:57.004Z,6.30
2022-12-18T13:24:59.214Z,4.45
2022-12-18T13:28:12.875Z,6.80
2022-12-18T13:31:31.052Z,6.87
2022-12-18T13:34:34.173Z,10.07
2022-12-18T13:37:40.752Z,7.32
2022-12-18T13:40:48.985Z,7.28
2022-12-18T13:43:53.058Z,5.95
2022-12-18T13:46:55.433Z,5.57
2022-12-18T13:49:58.272Z,8.35
2022-12-18T13:53:00.870Z,7.95
2022-12-18T13:56:04.429Z,7.20
2022-12-18T13:59:17.440Z,7.25
2022-12-18T14:02:28.601Z,6.90
2022-12-18T14:05:33.867Z,4.97
2022-12-18T14:08:40.941Z,7.60
2022-12-18T14:11:48.417Z,5.28
2022-12-18T14:14:52.552Z,5.95
2022-12-18T14:18:27.770Z,5.57
2022-12-18T14:21:31.027Z,11.27
2022-12-18T14:24:33.452Z,19.45
2022-12-18T14:27:38.733Z,19.75
2022-12-18T14:30:45.310Z,22.23
2022-12-18T14:33:47.636Z,18.27
2022-12-18T14:36:54.996Z,20.70
2022-12-18T14:40:10.165Z,29.42
2022-12-18T14:43:15.671Z,25.15
2022-12-18T14:46:32.420Z,29.12
2022-12-18T14:49:35.297Z,31.37
2022-12-18T14:52:38.751Z,48.25
2022-12-18T14:55:48.043Z,46.67
2022-12-18T14:59:02.811Z,36.47
2022-12-18T15:02:18.612Z,28.35
2022-12-18T15:05:30.084Z,20.65
2022-12-18T15:08:36.900Z,12.43
2022-12-18T15:11:39.153Z,8.18
2022-12-18T15:14:42.381Z,6.78
2022-12-18T15:17:44.851Z,6.53
2022-12-18T15:20:53.632Z,5.65
2022-12-18T15:23:56.598Z,13.60
2022-12-18T15:27:01.913Z,8.88
2022-12-18T15:30:13.292Z,9.10
2022-12-18T15:33:28.033Z,11.82
2022-12-18T15:36:31.207Z,15.32
2022-12-18T15:39:33.443Z,12.82
2022-12-18T15:42:54.888Z,11.73
2022-12-18T15:45:57.310Z,11.70
2022-12-18T15:49:02.467Z,11.50
2022-12-18T15:52:05.954Z,8.35
2022-12-18T15:55:39.268Z,21.65
2022-12-18T15:58:42.563Z,34.75
2022-12-18T16:01:47.782Z,25.70
2022-12-18T16:04:51.492Z,20.27
2022-12-18T16:07:54.358Z,23.48
2022-12-18T16:10:58.023Z,21.60
2022-12-18T16:14:00.489Z,24.15
2022-12-18T16:17:05.917Z,16.23
2022-12-18T16:20:22.852Z,15.30
2022-12-18T16:23:25.474Z,16.83
2022-12-18T16:26:27.911Z,15.85
2022-12-18T16:29:31.343Z,14.32
2022-12-18T16:32:33.914Z,13.00
2022-12-18T16:35:38.297Z,16.87
2022-12-18T16:38:40.984Z,15.50
2022-12-18T16:41:43.987Z,19.00
2022-12-18T16:44:47.382Z,14.25
2022-12-18T16:47:50.317Z,12.60
2022-12-18T16:51:02.659Z,20.55
2022-12-18T16:54:09.719Z,17.00
2022-12-18T16:57:16.620Z,16.23
2022-12-18T17:00:19.040Z,17.40
2022-12-18T17:03:21.905Z,17.33
2022-12-18T17:06:25.193Z,16.30
2022-12-18T17:09:27.791Z,22.33
2022-12-18T17:12:30.278Z,26.27
2022-12-18T17:15:35.934Z,17.52
2022-12-18T17:18:38.804Z,14.70
2022-12-18T17:21:41.335Z,12.18
2022-12-18T17:24:43.646Z,20.25
2022-12-18T17:27:46.311Z,23.50
2022-12-18T17:30:48.497Z,24.60
2022-12-18T17:33:51.216Z,23.77
2022-12-18T17:36:53.724Z,25.20
2022-12-18T17:39:56.166Z,20.45
2022-12-18T17:42:58.365Z,22.00
2022-12-18T17:46:04.493Z,22.23
2022-12-18T17:49:10.466Z,21.15
2022-12-18T17:52:12.982Z,18.42
2022-12-18T17:55:16.229Z,21.48
2022-12-18T17:58:18.707Z,22.90
2022-12-18T18:01:24.381Z,25.90
2022-12-18T18:04:27.041Z,26.33
2022-12-18T18:07:29.520Z,21.77
2022-12-18T18:10:33.771Z,25.48
2022-12-18T18:14:07.074Z,23.05
2022-12-18T18:17:09.621Z,17.77
2022-12-18T18:20:12.205Z,15.95
2022-12-18T18:23:15.062Z,17.33
2022-12-18T18:26:17.567Z,17.70
2022-12-18T18:29:23.585Z,61.40
2022-12-18T18:32:28.804Z,47.92
2022-12-18T18:35:53.428Z,62.58
2022-12-18T18:38:54.763Z,33.85
2022-12-18T18:41:57.506Z,28.25
2022-12-18T18:45:00.046Z,25.02
2022-12-18T18:48:06.563Z,32.17
2022-12-18T18:51:20.795Z,27.40
2022-12-18T18:54:27.213Z,26.75
2022-12-18T18:57:30.739Z,25.40
2022-12-18T19:00:34.634Z,21.87
2022-12-18T19:03:39.105Z,23.52
2022-12-18T19:06:42.964Z,20.88
2022-12-18T19:09:52.486Z,27.20
2022-12-18T19:13:13.478Z,26.17
2022-12-18T19:16:15.944Z,21.70
2022-12-18T19:19:21.112Z,24.00
2022-12-18T19:22:24.186Z,22.02
2022-12-18T19:25:40.205Z,13.77
2022-12-18T19:28:45.098Z,19.87
2022-12-18T19:31:47.919Z,21.87
2022-12-18T19:34:50.537Z,21.65
2022-12-18T19:37:53.248Z,21.73
2022-12-18T19:40:56.421Z,34.17
2022-12-18T19:43:58.743Z,77.70
2022-12-18T19:47:01.551Z,55.15
2022-12-18T19:50:04.766Z,34.45
2022-12-18T19:53:07.669Z,25.70
2022-12-18T19:56:18.174Z,23.25
2022-12-18T19:59:20.882Z,23.70
2022-12-18T20:02:23.510Z,28.77
2022-12-18T20:05:27.276Z,21.27
2022-12-18T20:08:29.981Z,20.98
2022-12-18T20:11:33.460Z,24.30
2022-12-18T20:14:39.348Z,25.88
2022-12-18T20:17:41.932Z,38.25
2022-12-18T20:20:44.799Z,38.33
2022-12-18T20:23:49.508Z,36.33
2022-12-18T20:26:52.801Z,26.50
2022-12-18T20:29:55.825Z,28.30
2022-12-18T20:33:01.275Z,27.62
2022-12-18T20:36:07.967Z,20.98
2022-12-18T20:39:12.231Z,20.45
2022-12-18T20:42:15.929Z,17.05
2022-12-18T20:45:19.021Z,12.07
2022-12-18T20:48:26.465Z,14.80
2022-12-18T20:51:30.608Z,9.82
2022-12-18T20:54:32.910Z,11.18
2022-12-18T20:57:35.412Z,15.75
2022-12-18T21:00:40.715Z,10.07
2022-12-18T21:03:43.704Z,13.95
2022-12-18T21:06:54.240Z,12.23
2022-12-18T21:10:04.296Z,7.90
2022-12-18T21:13:08.455Z,9.13
2022-12-18T21:16:12.517Z,5.37
2022-12-18T21:19:17.800Z,9.27
2022-12-18T21:22:20.203Z,8.45
2022-12-18T21:25:22.946Z,7.22
2022-12-18T21:28:25.196Z,8.68
2022-12-18T21:31:30.031Z,6.75
2022-12-18T21:34:33.197Z,7.10
2022-12-18T21:37:35.388Z,4.53
2022-12-18T21:40:39.242Z,8.20
2022-12-18T21:44:00.392Z,6.60
2022-12-18T21:47:15.151Z,5.72
2022-12-18T21:50:24.893Z,7.22
2022-12-18T21:53:27.121Z,6.15
2022-12-18T21:56:47.542Z,3.70
2022-12-18T21:59:50.597Z,8.07
2022-12-18T22:03:07.380Z,5.57
2022-12-18T22:06:16.051Z,8.95
2022-12-18T22:09:20.377Z,6.47
2022-12-18T22:12:44.147Z,8.75
2022-12-18T22:15:46.807Z,10.35
2022-12-18T22:18:49.111Z,10.50
2022-12-18T22:21:51.723Z,9.05
2022-12-18T22:24:53.975Z,7.25
2022-12-18T22:28:14.763Z,9.90
2022-12-18T22:31:18.370Z,7.18
2022-12-18T22:34:22.989Z,6.57
2022-12-18T22:37:25.497Z,7.60
2022-12-18T22:40:28.336Z,7.75
2022-12-18T22:43:30.559Z,9.13
2022-12-18T22:46:35.819Z,7.03
2022-12-18T22:49:38.764Z,7.78
2022-12-18T22:52:41.660Z,8.15
2022-12-18T22:55:43.877Z,9.45
2022-12-18T22:58:51.109Z,8.88
2022-12-18T23:01:56.248Z,6.30
2022-12-18T23:05:01.534Z,7.70
2022-12-18T23:08:03.848Z,8.02
2022-12-18T23:11:06.236Z,5.40
2022-12-18T23:14:08.414Z,8.35
2022-12-18T23:17:10.728Z,7.03
2022-12-18T23:20:13.512Z,10.32
2022-12-18T23:23:15.847Z,9.70
2022-12-18T23:26:21.083Z,6.32
2022-12-18T23:29:23.326Z,6.12
2022-12-18T23:32:25.539Z,8.63
2022-12-18T23:35:27.736Z,9.82
2022-12-18T23:38:30.823Z,7.70
2022-12-18T23:41:33.243Z,8.68
2022-12-18T23:44:35.424Z,8.85
2022-12-18T23:47:37.732Z,8.02
2022-12-18T23:50:39.893Z,7.70
2022-12-18T23:53:42.567Z,7.78
2022-12-18T23:56:44.832Z,8.75
2022-12-18T23:59:47.028Z,7.78
